createdAt,value
2022-12-01T00:01:08.562Z,35.42
2022-12-01T00:03:35.696Z,34.60
2022-12-01T00:06:05.260Z,35.88
2022-12-01T00:08:32.325Z,35.97
2022-12-01T00:11:06.706Z,34.28
2022-12-01T00:13:34.022Z,32.35
2022-12-01T00:16:12.034Z,30.60
2022-12-01T00:18:38.634Z,28.70
2022-12-01T00:21:05.362Z,28.40
2022-12-01T00:23:31.990Z,28.83
2022-12-01T00:26:05.453Z,28.48
2022-12-01T00:28:32.031Z,27.30
2022-12-01T00:30:58.930Z,29.05
2022-12-01T00:33:25.470Z,29.20
2022-12-01T00:35:58.740Z,29.17
2022-12-01T00:38:25.753Z,27.83
2022-12-01T00:40:52.281Z,29.83
2022-12-01T00:43:18.760Z,30.83
2022-12-01T00:45:45.310Z,31.30
2022-12-01T00:48:11.915Z,29.42
2022-12-01T00:50:38.492Z,29.65
2022-12-01T00:53:05.019Z,30.98
2022-12-01T00:55:31.528Z,31.80
2022-12-01T00:57:59.173Z,32.55
2022-12-01T01:00:25.738Z,33.92
2022-12-01T01:02:52.325Z,34.35
2022-12-01T01:05:18.965Z,35.00
2022-12-01T01:07:45.603Z,36.58
2022-12-01T01:10:12.639Z,36.70
2022-12-01T01:12:39.153Z,37.70
2022-12-01T01:15:07.416Z,38.08
2022-12-01T01:17:34.335Z,38.40
2022-12-01T01:20:00.881Z,38.55
2022-12-01T01:22:27.423Z,39.28
2022-12-01T01:24:53.957Z,39.80
2022-12-01T01:27:20.631Z,40.95
2022-12-01T01:29:47.575Z,40.42
2022-12-01T01:32:14.421Z,43.35
2022-12-01T01:34:40.945Z,43.70
2022-12-01T01:37:07.504Z,43.15
2022-12-01T01:39:34.076Z,46.55
2022-12-01T01:42:00.585Z,45.90
2022-12-01T01:44:48.804Z,46.35
2022-12-01T01:47:26.922Z,45.95
2022-12-01T01:49:55.987Z,45.35
2022-12-01T01:52:23.610Z,45.95
2022-12-01T01:54:54.737Z,47.72
2022-12-01T01:57:26.834Z,49.28
2022-12-01T01:59:59.162Z,47.97
2022-12-01T02:02:25.773Z,49.35
2022-12-01T02:04:58.605Z,50.30
2022-12-01T02:07:25.505Z,49.50
2022-12-01T02:09:54.210Z,51.72
2022-12-01T02:12:46.517Z,50.67
2022-12-01T02:15:23.294Z,50.20
2022-12-01T02:18:15.155Z,50.70
2022-12-01T02:21:00.081Z,50.78
2022-12-01T02:24:03.393Z,49.42
2022-12-01T02:26:45.099Z,49.38
2022-12-01T02:29:45.564Z,51.25
2022-12-01T02:32:50.299Z,48.22
2022-12-01T02:35:29.243Z,46.78
2022-12-01T02:38:10.735Z,45.75
2022-12-01T02:40:46.898Z,45.30
2022-12-01T02:43:52.907Z,44.45
2022-12-01T02:46:28.171Z,42.05
2022-12-01T02:48:59.781Z,42.03
2022-12-01T02:51:32.252Z,41.78
2022-12-01T02:54:00.631Z,41.17
2022-12-01T02:56:27.656Z,43.42
2022-12-01T02:58:54.361Z,43.83
2022-12-01T03:01:46.051Z,43.05
2022-12-01T03:04:40.609Z,39.58
2022-12-01T03:07:12.225Z,39.40
2022-12-01T03:09:47.515Z,37.13
2022-12-01T03:12:42.150Z,35.85
2022-12-01T03:15:12.174Z,34.47
2022-12-01T03:18:19.874Z,33.88
2022-12-01T03:20:58.166Z,31.10
2022-12-01T03:23:29.422Z,31.83
2022-12-01T03:25:59.091Z,30.42
2022-12-01T03:28:37.869Z,28.77
2022-12-01T03:31:09.258Z,30.42
2022-12-01T03:33:47.058Z,26.95
2022-12-01T03:36:20.031Z,26.58
2022-12-01T03:38:52.223Z,27.10
2022-12-01T03:41:25.265Z,28.05
2022-12-01T03:43:57.608Z,26.48
2022-12-01T03:46:41.281Z,27.58
2022-12-01T03:49:09.761Z,26.42
2022-12-01T03:51:48.261Z,27.83
2022-12-01T03:54:33.727Z,27.05
2022-12-01T03:57:05.494Z,27.23
2022-12-01T03:59:35.960Z,26.58
2022-12-01T04:02:02.709Z,28.08
2022-12-01T04:04:29.264Z,27.30
2022-12-01T04:06:55.768Z,28.48
2022-12-01T04:09:22.287Z,28.90
2022-12-01T04:12:07.136Z,28.20
2022-12-01T04:14:33.673Z,27.65
2022-12-01T04:17:00.200Z,28.80
2022-12-01T04:19:26.716Z,28.50
2022-12-01T04:21:53.466Z,29.30
2022-12-01T04:24:20.013Z,29.02
2022-12-01T04:26:46.902Z,28.50
2022-12-01T04:29:13.759Z,28.98
2022-12-01T04:31:40.816Z,28.30
2022-12-01T04:34:07.615Z,28.15
2022-12-01T04:36:34.941Z,28.83
2022-12-01T04:39:02.335Z,30.63
2022-12-01T04:41:28.943Z,29.23
2022-12-01T04:43:56.065Z,29.50
2022-12-01T04:46:24.402Z,30.38
2022-12-01T04:48:51.064Z,28.83
2022-12-01T04:51:17.945Z,29.02
2022-12-01T04:53:44.656Z,30.00
2022-12-01T04:56:11.346Z,28.42
2022-12-01T04:58:38.026Z,27.00
2022-12-01T05:01:06.884Z,26.33
2022-12-01T05:03:37.592Z,27.98
2022-12-01T05:06:10.905Z,28.63
2022-12-01T05:08:38.058Z,27.45
2022-12-01T05:11:07.726Z,28.80
2022-12-01T05:13:42.321Z,28.48
2022-12-01T05:16:14.960Z,28.00
2022-12-01T05:18:42.243Z,26.92
2022-12-01T05:21:10.349Z,28.85
2022-12-01T05:23:38.104Z,29.98
2022-12-01T05:26:08.948Z,27.30
2022-12-01T05:28:36.026Z,28.67
2022-12-01T05:31:03.159Z,29.70
2022-12-01T05:33:30.222Z,29.88
2022-12-01T05:35:57.132Z,29.30
2022-12-01T05:38:23.745Z,28.75
2022-12-01T05:40:52.572Z,28.40
2022-12-01T05:43:28.578Z,29.42
2022-12-01T05:45:56.873Z,28.20
2022-12-01T05:48:23.878Z,29.05
2022-12-01T05:50:50.767Z,31.98
2022-12-01T05:53:17.833Z,29.30
2022-12-01T05:55:44.777Z,30.10
2022-12-01T05:58:11.757Z,30.73
2022-12-01T06:00:45.254Z,29.52
2022-12-01T06:03:12.904Z,29.08
2022-12-01T06:05:39.865Z,30.58
2022-12-01T06:08:07.013Z,29.45
2022-12-01T06:10:33.923Z,29.17
2022-12-01T06:13:00.398Z,29.92
2022-12-01T06:15:27.277Z,29.30
2022-12-01T06:17:53.905Z,28.73
2022-12-01T06:20:20.508Z,29.55
2022-12-01T06:22:47.028Z,30.08
2022-12-01T06:25:13.530Z,29.42
2022-12-01T06:27:40.243Z,29.40
2022-12-01T06:30:07.486Z,28.85
2022-12-01T06:32:34.044Z,29.58
2022-12-01T06:35:00.796Z,30.40
2022-12-01T06:37:28.262Z,30.08
2022-12-01T06:39:54.898Z,29.63
2022-12-01T06:42:21.490Z,29.33
2022-12-01T06:44:48.028Z,28.60
2022-12-01T06:47:15.923Z,29.10
2022-12-01T06:49:42.429Z,30.30
2022-12-01T06:52:10.089Z,28.58
2022-12-01T06:54:37.606Z,28.73
2022-12-01T06:57:04.812Z,28.13
2022-12-01T06:59:31.681Z,29.90
2022-12-01T07:01:58.976Z,29.33
2022-12-01T07:04:25.643Z,30.23
2022-12-01T07:06:52.191Z,30.73
2022-12-01T07:09:18.795Z,31.65
2022-12-01T07:11:45.302Z,30.92
2022-12-01T07:14:22.059Z,31.65
2022-12-01T07:16:48.691Z,33.28
2022-12-01T07:19:15.241Z,35.35
2022-12-01T07:21:41.772Z,35.92
2022-12-01T07:24:08.569Z,35.30
2022-12-01T07:26:35.130Z,33.67
2022-12-01T07:29:01.647Z,35.00
2022-12-01T07:31:28.205Z,35.58
2022-12-01T07:33:54.730Z,35.97
2022-12-01T07:36:21.274Z,35.55
2022-12-01T07:38:47.901Z,35.50
2022-12-01T07:41:16.735Z,32.92
2022-12-01T07:43:43.429Z,34.70
2022-12-01T07:46:18.693Z,32.45
2022-12-01T07:48:47.133Z,35.35
2022-12-01T07:51:16.730Z,30.98
2022-12-01T07:53:44.771Z,29.50
2022-12-01T07:56:11.663Z,28.92
2022-12-01T07:58:38.521Z,31.60
2022-12-01T08:01:10.441Z,29.40
2022-12-01T08:03:37.656Z,29.05
2022-12-01T08:06:05.924Z,28.92
2022-12-01T08:08:35.236Z,31.00
2022-12-01T08:11:04.361Z,30.08
2022-12-01T08:13:31.294Z,29.25
2022-12-01T08:15:58.071Z,29.00
2022-12-01T08:18:24.865Z,30.08
2022-12-01T08:20:51.802Z,30.13
2022-12-01T08:23:18.436Z,29.60
2022-12-01T08:25:44.994Z,28.90
2022-12-01T08:28:11.563Z,29.80
2022-12-01T08:30:38.138Z,28.30
2022-12-01T08:33:04.700Z,27.23
2022-12-01T08:35:31.184Z,29.38
2022-12-01T08:37:57.700Z,26.92
2022-12-01T08:40:24.281Z,27.10
2022-12-01T08:42:53.028Z,30.10
2022-12-01T08:45:20.408Z,30.85
2022-12-01T08:47:47.556Z,29.85
2022-12-01T08:50:14.263Z,31.63
2022-12-01T08:52:40.870Z,31.95
2022-12-01T08:55:08.202Z,32.20
2022-12-01T08:57:34.773Z,34.35
2022-12-01T09:00:01.315Z,34.88
2022-12-01T09:02:28.193Z,35.00
2022-12-01T09:04:55.830Z,34.90
2022-12-01T09:07:26.358Z,33.75
2022-12-01T09:09:53.289Z,32.90
2022-12-01T09:12:19.870Z,33.78
2022-12-01T09:14:48.371Z,33.65
2022-12-01T09:17:16.649Z,32.17
2022-12-01T09:19:44.069Z,33.67
2022-12-01T09:22:11.702Z,31.73
2022-12-01T09:24:38.452Z,32.28
2022-12-01T09:27:05.314Z,35.42
2022-12-01T09:29:32.546Z,35.88
2022-12-01T09:32:00.405Z,34.38
2022-12-01T09:34:29.118Z,34.15
2022-12-01T09:36:57.681Z,31.38
2022-12-01T09:39:24.737Z,34.88
2022-12-01T09:42:08.553Z,32.28
2022-12-01T09:44:44.392Z,32.03
2022-12-01T09:47:30.793Z,30.75
2022-12-01T09:50:05.687Z,30.13
2022-12-01T09:52:42.230Z,29.13
2022-12-01T09:55:17.609Z,27.70
2022-12-01T09:57:47.878Z,27.17
2022-12-01T10:00:27.820Z,26.30
2022-12-01T10:03:01.101Z,24.75
2022-12-01T10:05:36.457Z,28.08
2022-12-01T10:08:07.986Z,24.67
2022-12-01T10:10:43.070Z,27.02
2022-12-01T10:13:17.369Z,27.45
2022-12-01T10:15:50.532Z,30.75
2022-12-01T10:18:26.085Z,29.15
2022-12-01T10:20:52.816Z,27.50
2022-12-01T10:23:22.068Z,28.50
2022-12-01T10:26:09.843Z,29.52
2022-12-01T10:29:05.330Z,29.73
2022-12-01T10:31:47.701Z,29.17
2022-12-01T10:34:25.219Z,30.35
2022-12-01T10:36:51.785Z,30.95
2022-12-01T10:39:33.693Z,27.80
2022-12-01T10:42:06.809Z,26.77
2022-12-01T10:44:34.700Z,23.70
2022-12-01T10:47:02.318Z,22.80
2022-12-01T10:49:40.076Z,21.33
2022-12-01T10:52:07.633Z,23.15
2022-12-01T10:54:38.987Z,22.77
2022-12-01T10:57:07.755Z,23.33
2022-12-01T10:59:54.433Z,22.77
2022-12-01T11:02:23.712Z,20.50
2022-12-01T11:04:55.128Z,20.42
2022-12-01T11:07:46.462Z,21.40
2022-12-01T11:10:23.905Z,20.85
2022-12-01T11:13:23.746Z,21.63
2022-12-01T11:15:58.957Z,21.30
2022-12-01T11:18:30.008Z,20.35
2022-12-01T11:21:27.195Z,19.98
2022-12-01T11:23:55.760Z,22.05
2022-12-01T11:26:34.564Z,23.08
2022-12-01T11:29:07.684Z,22.67
2022-12-01T11:31:48.029Z,23.45
2022-12-01T11:34:22.511Z,22.70
2022-12-01T11:36:53.516Z,21.02
2022-12-01T11:39:39.915Z,21.25
2022-12-01T11:42:15.104Z,21.67
2022-12-01T11:44:51.705Z,21.15
2022-12-01T11:47:27.888Z,19.92
2022-12-01T11:50:03.345Z,19.40
2022-12-01T11:52:34.516Z,17.63
2022-12-01T11:55:13.082Z,18.30
2022-12-01T11:57:42.774Z,18.63
2022-12-01T12:00:17.492Z,18.73
2022-12-01T12:02:57.740Z,19.65
2022-12-01T12:05:57.601Z,21.52
2022-12-01T12:09:00.128Z,19.80
2022-12-01T12:11:39.238Z,19.43
2022-12-01T12:14:13.133Z,19.20
2022-12-01T12:16:54.798Z,19.70
2022-12-01T12:19:33.901Z,22.42
2022-12-01T12:22:24.503Z,22.58
2022-12-01T12:25:09.735Z,20.92
2022-12-01T12:28:06.710Z,21.35
2022-12-01T12:31:00.997Z,21.40
2022-12-01T12:33:41.070Z,19.65
2022-12-01T12:36:26.113Z,20.45
2022-12-01T12:39:16.277Z,21.25
2022-12-01T12:41:46.580Z,19.20
2022-12-01T12:44:37.954Z,24.08
2022-12-01T12:47:36.878Z,23.17
2022-12-01T12:50:25.752Z,40.30
2022-12-01T12:52:59.471Z,23.40
2022-12-01T12:55:57.994Z,19.95
2022-12-01T12:58:34.545Z,19.77
2022-12-01T13:01:07.094Z,19.98
2022-12-01T13:03:42.668Z,19.50
2022-12-01T13:06:15.859Z,19.75
2022-12-01T13:09:08.475Z,81.68
2022-12-01T13:11:59.526Z,29.60
2022-12-01T13:14:30.649Z,20.33
2022-12-01T13:17:25.501Z,18.88
2022-12-01T13:19:52.175Z,31.45
2022-12-01T13:22:24.626Z,21.98
2022-12-01T13:24:51.277Z,19.38
2022-12-01T13:27:22.149Z,20.05
2022-12-01T13:29:51.969Z,20.20
2022-12-01T13:32:30.677Z,19.58
2022-12-01T13:34:59.169Z,21.17
2022-12-01T13:37:31.936Z,20.70
2022-12-01T13:40:10.663Z,19.20
2022-12-01T13:42:39.755Z,21.40
2022-12-01T13:45:20.110Z,21.52
2022-12-01T13:47:46.562Z,20.58
2022-12-01T13:50:43.139Z,19.65
2022-12-01T13:53:19.976Z,22.15
2022-12-01T13:56:11.295Z,21.67
2022-12-01T13:58:47.586Z,20.25
2022-12-01T14:01:20.606Z,20.88
2022-12-01T14:03:53.630Z,21.80
2022-12-01T14:06:39.024Z,20.98
2022-12-01T14:09:16.245Z,19.60
2022-12-01T14:12:02.753Z,20.00
2022-12-01T14:14:36.679Z,20.90
2022-12-01T14:17:04.361Z,21.02
2022-12-01T14:19:46.356Z,21.13
2022-12-01T14:22:34.526Z,19.40
2022-12-01T14:25:01.933Z,21.20
2022-12-01T14:27:42.384Z,20.35
2022-12-01T14:30:45.056Z,20.80
2022-12-01T14:33:36.294Z,22.17
2022-12-01T14:36:06.490Z,22.95
2022-12-01T14:38:33.534Z,21.40
2022-12-01T14:41:00.186Z,22.65
2022-12-01T14:43:46.961Z,22.33
2022-12-01T14:46:20.984Z,23.83
2022-12-01T14:48:48.156Z,24.33
2022-12-01T14:51:28.259Z,23.27
2022-12-01T14:53:57.184Z,23.55
2022-12-01T14:56:25.956Z,25.38
2022-12-01T14:58:55.479Z,25.27
2022-12-01T15:01:23.098Z,26.40
2022-12-01T15:03:52.286Z,26.55
2022-12-01T15:06:24.467Z,26.75
2022-12-01T15:12:09.580Z,27.02
2022-12-01T15:14:49.527Z,27.75
2022-12-01T15:17:35.839Z,27.75
2022-12-01T15:20:03.206Z,28.65
2022-12-01T15:22:33.343Z,28.13
2022-12-01T15:25:13.433Z,28.17
2022-12-01T15:27:39.995Z,28.45
2022-12-01T15:30:14.271Z,28.65
2022-12-01T15:32:45.691Z,27.17
2022-12-01T15:35:20.954Z,27.85
2022-12-01T15:37:48.388Z,27.25
2022-12-01T15:43:24.694Z,25.40
2022-12-01T15:45:59.682Z,26.13
2022-12-01T15:48:33.136Z,26.13
2022-12-01T15:51:08.893Z,25.90
2022-12-01T15:53:45.050Z,26.73
2022-12-01T15:56:12.498Z,27.20
2022-12-01T15:59:09.639Z,27.83
2022-12-01T16:01:37.270Z,28.58
2022-12-01T16:04:07.508Z,29.75
2022-12-01T16:06:38.389Z,29.15
2022-12-01T16:09:22.302Z,30.83
2022-12-01T16:12:22.705Z,32.97
2022-12-01T16:14:50.907Z,31.05
2022-12-01T16:17:17.687Z,30.67
2022-12-01T16:19:45.519Z,31.67
2022-12-01T16:22:12.064Z,37.80
2022-12-01T16:24:46.895Z,38.50
2022-12-01T16:27:30.844Z,36.75
2022-12-01T16:30:01.344Z,38.08
2022-12-01T16:32:42.178Z,38.17
2022-12-01T16:35:20.837Z,38.85
2022-12-01T16:37:47.413Z,38.10
2022-12-01T16:40:14.918Z,38.55
2022-12-01T16:42:41.427Z,38.40
2022-12-01T16:45:13.733Z,39.50
2022-12-01T16:47:41.536Z,35.33
2022-12-01T16:50:14.121Z,36.47
2022-12-01T16:52:45.528Z,38.72
2022-12-01T16:55:27.060Z,37.55
2022-12-01T16:57:53.646Z,40.25
2022-12-01T17:00:20.631Z,40.42
2022-12-01T17:02:47.243Z,40.17
2022-12-01T17:05:13.956Z,43.00
2022-12-01T17:07:40.506Z,45.63
2022-12-01T17:10:07.599Z,48.40
2022-12-01T17:12:34.109Z,46.40
2022-12-01T17:15:00.617Z,43.20
2022-12-01T17:17:29.689Z,49.97
2022-12-01T17:19:56.241Z,48.42
2022-12-01T17:22:23.003Z,45.40
2022-12-01T17:24:50.042Z,47.30
2022-12-01T17:27:19.255Z,49.60
2022-12-01T17:29:46.423Z,51.28
2022-12-01T17:32:14.481Z,74.57
2022-12-01T17:34:40.999Z,49.85
2022-12-01T17:37:07.814Z,48.30
2022-12-01T17:39:34.325Z,51.03
2022-12-01T17:42:00.951Z,51.50
2022-12-01T17:44:27.775Z,49.20
2022-12-01T17:46:54.541Z,47.88
2022-12-01T17:49:21.153Z,43.05
2022-12-01T17:51:47.703Z,43.30
2022-12-01T17:54:14.530Z,42.17
2022-12-01T17:56:41.180Z,42.20
2022-12-01T17:59:07.708Z,40.38
2022-12-01T18:01:34.383Z,40.83
2022-12-01T18:04:01.402Z,40.78
2022-12-01T18:06:28.128Z,42.40
2022-12-01T18:08:55.076Z,40.20
2022-12-01T18:11:22.861Z,40.58
2022-12-01T18:13:51.441Z,39.88
2022-12-01T18:16:26.952Z,37.85
2022-12-01T18:18:54.721Z,36.50
2022-12-01T18:21:23.869Z,34.15
2022-12-01T18:23:51.265Z,35.15
2022-12-01T18:26:19.551Z,36.95
2022-12-01T18:28:46.142Z,37.03
2022-12-01T18:31:16.161Z,32.70
2022-12-01T18:33:44.722Z,34.20
2022-12-01T18:36:18.512Z,32.17
2022-12-01T18:38:47.154Z,31.10
2022-12-01T18:41:14.381Z,32.88
2022-12-01T18:43:41.455Z,34.45
2022-12-01T18:46:09.550Z,42.92
2022-12-01T18:48:36.134Z,42.83
2022-12-01T18:51:05.129Z,48.55
2022-12-01T18:53:32.208Z,42.90
2022-12-01T18:56:06.796Z,40.08
2022-12-01T18:58:33.687Z,38.63
2022-12-01T19:01:01.400Z,36.13
2022-12-01T19:03:32.482Z,38.05
2022-12-01T19:05:59.282Z,33.95
2022-12-01T19:08:25.845Z,35.80
2022-12-01T19:11:00.333Z,35.67
2022-12-01T19:13:27.430Z,33.80
2022-12-01T19:15:54.059Z,32.65
2022-12-01T19:18:20.620Z,35.05
2022-12-01T19:20:47.261Z,33.83
2022-12-01T19:23:13.965Z,36.90
2022-12-01T19:25:40.501Z,34.90
2022-12-01T19:28:08.115Z,34.42
2022-12-01T19:30:34.996Z,32.80
2022-12-01T19:33:01.490Z,34.40
2022-12-01T19:35:28.005Z,31.08
2022-12-01T19:37:54.518Z,37.38
2022-12-01T19:40:21.032Z,34.40
2022-12-01T19:42:47.580Z,36.88
2022-12-01T19:45:14.306Z,36.90
2022-12-01T19:47:40.812Z,37.40
2022-12-01T19:50:07.918Z,34.45
2022-12-01T19:52:36.026Z,33.80
2022-12-01T19:55:03.160Z,34.05
2022-12-01T19:57:29.712Z,32.55
2022-12-01T19:59:56.222Z,32.67
2022-12-01T20:02:28.866Z,30.48
2022-12-01T20:04:56.557Z,31.95
2022-12-01T20:07:23.350Z,32.17
2022-12-01T20:09:50.332Z,33.72
2022-12-01T20:12:17.178Z,35.95
2022-12-01T20:14:43.701Z,34.88
2022-12-01T20:17:15.542Z,33.50
2022-12-01T20:19:42.512Z,34.65
2022-12-01T20:22:09.030Z,34.25
2022-12-01T20:24:36.772Z,36.03
2022-12-01T20:27:03.405Z,34.92
2022-12-01T20:29:30.240Z,35.92
2022-12-01T20:31:59.869Z,34.70
2022-12-01T20:34:32.648Z,34.47
2022-12-01T20:36:59.501Z,31.17
2022-12-01T20:39:27.021Z,34.05
2022-12-01T20:41:53.703Z,33.00
2022-12-01T20:44:20.638Z,33.55
2022-12-01T20:46:47.720Z,31.88
2022-12-01T20:49:16.980Z,34.42
2022-12-01T20:51:43.749Z,32.88
2022-12-01T20:54:30.002Z,33.83
2022-12-01T20:56:57.793Z,32.97
2022-12-01T20:59:24.848Z,34.00
2022-12-01T21:01:51.357Z,34.78
2022-12-01T21:04:18.002Z,34.60
2022-12-01T21:06:44.702Z,36.10
2022-12-01T21:09:13.047Z,35.88
2022-12-01T21:12:04.670Z,37.47
2022-12-01T21:14:42.267Z,33.35
2022-12-01T21:17:21.950Z,34.05
2022-12-01T21:20:21.329Z,36.05
2022-12-01T21:22:49.984Z,34.95
2022-12-01T21:25:21.174Z,34.53
2022-12-01T21:27:48.401Z,35.83
2022-12-01T21:30:17.113Z,33.65
2022-12-01T21:32:44.868Z,31.23
2022-12-01T21:35:18.825Z,33.90
2022-12-01T21:37:46.225Z,33.50
2022-12-01T21:40:18.636Z,35.75
2022-12-01T21:42:45.442Z,33.70
2022-12-01T21:45:28.404Z,33.10
2022-12-01T21:48:13.704Z,32.67
2022-12-01T21:50:40.262Z,32.08
2022-12-01T21:53:18.329Z,31.40
2022-12-01T21:55:47.066Z,33.50
2022-12-01T21:58:29.626Z,33.38
2022-12-01T22:00:59.515Z,32.22
2022-12-01T22:03:46.329Z,32.53
2022-12-01T22:06:30.937Z,33.83
2022-12-01T22:09:11.783Z,33.50
2022-12-01T22:11:38.325Z,35.83
2022-12-01T22:14:15.491Z,33.65
2022-12-01T22:16:49.942Z,33.53
2022-12-01T22:19:16.409Z,33.05
2022-12-01T22:21:48.517Z,31.48
2022-12-01T22:24:23.951Z,32.08
2022-12-01T22:26:57.973Z,33.58
2022-12-01T22:29:34.173Z,35.92
2022-12-01T22:32:13.126Z,30.83
2022-12-01T22:34:44.961Z,34.13
2022-12-01T22:37:40.165Z,35.03
2022-12-01T22:40:38.520Z,32.42
2022-12-01T22:43:17.281Z,33.40
2022-12-01T22:45:46.609Z,34.95
2022-12-01T22:48:22.706Z,34.35
2022-12-01T22:50:51.903Z,35.33
2022-12-01T22:53:25.618Z,33.55
2022-12-01T22:55:56.498Z,32.25
2022-12-01T22:58:31.399Z,35.05
2022-12-01T23:01:07.796Z,32.60
2022-12-01T23:03:34.592Z,32.55
2022-12-01T23:06:01.441Z,32.25
2022-12-01T23:08:27.956Z,35.33
2022-12-01T23:10:54.490Z,34.65
2022-12-01T23:13:23.219Z,33.90
2022-12-01T23:15:52.965Z,32.70
2022-12-01T23:18:24.569Z,34.13
2022-12-01T23:20:56.398Z,37.25
2022-12-01T23:23:27.409Z,31.88
2022-12-01T23:25:54.242Z,32.90
2022-12-01T23:28:21.311Z,33.03
2022-12-01T23:30:50.937Z,33.25
2022-12-01T23:33:29.729Z,32.55
2022-12-01T23:36:00.626Z,33.85
2022-12-01T23:38:42.324Z,31.85
2022-12-01T23:41:25.705Z,30.92
2022-12-01T23:43:55.446Z,32.30
2022-12-01T23:46:25.167Z,31.70
2022-12-01T23:48:56.403Z,34.03
2022-12-01T23:51:28.127Z,32.80
2022-12-01T23:53:56.537Z,30.77
2022-12-01T23:56:26.711Z,31.70
2022-12-01T23:58:55.787Z,30.65
